sensor_id;sensor_type;location;lat;lon;timestamp;P1;durP1;ratioP1;P2;durP2;ratioP2
40433;SDS011;26146;51.114;5.654;2022-12-07T00:02:39;20.43;;;9.83;;
40433;SDS011;26146;51.114;5.654;2022-12-07T00:06:41;22.03;;;9.90;;
40433;SDS011;26146;51.114;5.654;2022-12-07T00:10:43;27.20;;;11.87;;
40433;SDS011;26146;51.114;5.654;2022-12-07T00:14:46;23.77;;;10.90;;
40433;SDS011;26146;51.114;5.654;2022-12-07T00:18:47;19.47;;;10.40;;
40433;SDS011;26146;51.114;5.654;2022-12-07T00:22:48;19.60;;;10.80;;
40433;SDS011;26146;51.114;5.654;2022-12-07T00:26:49;18.87;;;10.67;;
40433;SDS011;26146;51.114;5.654;2022-12-07T00:30:52;20.23;;;10.83;;
40433;SDS011;26146;51.114;5.654;2022-12-07T00:35:10;20.60;;;10.97;;
40433;SDS011;26146;51.114;5.654;2022-12-07T00:39:13;19.63;;;10.80;;
40433;SDS011;26146;51.114;5.654;2022-12-07T00:43:14;21.67;;;11.07;;
40433;SDS011;26146;51.114;5.654;2022-12-07T00:47:15;24.97;;;11.70;;
40433;SDS011;26146;51.114;5.654;2022-12-07T00:51:17;23.73;;;12.80;;
40433;SDS011;26146;51.114;5.654;2022-12-07T00:55:19;26.60;;;12.83;;
40433;SDS011;26146;51.114;5.654;2022-12-07T00:59:20;26.30;;;13.10;;
40433;SDS011;26146;51.114;5.654;2022-12-07T01:03:21;25.97;;;13.60;;
40433;SDS011;26146;51.114;5.654;2022-12-07T01:07:22;25.00;;;13.63;;
40433;SDS011;26146;51.114;5.654;2022-12-07T01:11:24;26.77;;;14.23;;
40433;SDS011;26146;51.114;5.654;2022-12-07T01:15:27;30.37;;;14.13;;
40433;SDS011;26146;51.114;5.654;2022-12-07T01:19:28;28.27;;;14.70;;
40433;SDS011;26146;51.114;5.654;2022-12-07T01:23:33;28.30;;;13.70;;
40433;SDS011;26146;51.114;5.654;2022-12-07T01:27:34;28.47;;;13.97;;
40433;SDS011;26146;51.114;5.654;2022-12-07T01:31:38;28.83;;;14.97;;
40433;SDS011;26146;51.114;5.654;2022-12-07T01:35:39;30.43;;;15.57;;
40433;SDS011;26146;51.114;5.654;2022-12-07T01:39:40;30.00;;;15.40;;
40433;SDS011;26146;51.114;5.654;2022-12-07T01:48:10;29.77;;;15.23;;
40433;SDS011;26146;51.114;5.654;2022-12-07T01:52:20;30.13;;;16.43;;
40433;SDS011;26146;51.114;5.654;2022-12-07T01:56:26;32.13;;;16.53;;
40433;SDS011;26146;51.114;5.654;2022-12-07T02:00:30;29.03;;;15.87;;
40433;SDS011;26146;51.114;5.654;2022-12-07T02:04:30;27.70;;;15.90;;
40433;SDS011;26146;51.114;5.654;2022-12-07T02:08:32;30.73;;;16.13;;
40433;SDS011;26146;51.114;5.654;2022-12-07T02:12:34;30.60;;;16.17;;
40433;SDS011;26146;51.114;5.654;2022-12-07T02:24:52;27.20;;;14.80;;
40433;SDS011;26146;51.114;5.654;2022-12-07T02:33:14;24.20;;;13.77;;
40433;SDS011;26146;51.114;5.654;2022-12-07T02:41:49;24.60;;;13.80;;
40433;SDS011;26146;51.114;5.654;2022-12-07T02:45:56;22.90;;;13.10;;
40433;SDS011;26146;51.114;5.654;2022-12-07T02:50:03;25.43;;;13.87;;
40433;SDS011;26146;51.114;5.654;2022-12-07T02:54:09;23.00;;;13.47;;
40433;SDS011;26146;51.114;5.654;2022-12-07T03:06:42;23.43;;;13.13;;
40433;SDS011;26146;51.114;5.654;2022-12-07T03:11:00;24.60;;;13.13;;
40433;SDS011;26146;51.114;5.654;2022-12-07T03:15:07;23.43;;;13.83;;
40433;SDS011;26146;51.114;5.654;2022-12-07T03:19:22;24.20;;;13.37;;
40433;SDS011;26146;51.114;5.654;2022-12-07T03:23:26;23.13;;;13.68;;
40433;SDS011;26146;51.114;5.654;2022-12-07T03:27:31;25.73;;;13.77;;
40433;SDS011;26146;51.114;5.654;2022-12-07T03:31:38;24.23;;;13.73;;
40433;SDS011;26146;51.114;5.654;2022-12-07T03:35:44;23.57;;;13.30;;
40433;SDS011;26146;51.114;5.654;2022-12-07T03:40:14;25.10;;;13.90;;
40433;SDS011;26146;51.114;5.654;2022-12-07T03:44:25;24.33;;;13.23;;
40433;SDS011;26146;51.114;5.654;2022-12-07T03:48:37;23.67;;;12.90;;
40433;SDS011;26146;51.114;5.654;2022-12-07T03:52:56;20.83;;;12.77;;
40433;SDS011;26146;51.114;5.654;2022-12-07T03:57:03;23.30;;;12.63;;
40433;SDS011;26146;51.114;5.654;2022-12-07T04:01:05;22.77;;;13.10;;
40433;SDS011;26146;51.114;5.654;2022-12-07T04:05:06;23.93;;;13.67;;
40433;SDS011;26146;51.114;5.654;2022-12-07T04:09:08;23.60;;;13.67;;
40433;SDS011;26146;51.114;5.654;2022-12-07T04:13:09;26.10;;;13.30;;
40433;SDS011;26146;51.114;5.654;2022-12-07T04:17:10;24.73;;;13.30;;
40433;SDS011;26146;51.114;5.654;2022-12-07T04:21:11;22.43;;;12.43;;
40433;SDS011;26146;51.114;5.654;2022-12-07T04:25:12;24.00;;;13.13;;
40433;SDS011;26146;51.114;5.654;2022-12-07T04:29:13;22.07;;;12.43;;
40433;SDS011;26146;51.114;5.654;2022-12-07T04:33:15;22.53;;;12.20;;
40433;SDS011;26146;51.114;5.654;2022-12-07T04:37:16;22.70;;;12.67;;
40433;SDS011;26146;51.114;5.654;2022-12-07T04:41:17;24.03;;;12.43;;
40433;SDS011;26146;51.114;5.654;2022-12-07T04:45:18;22.43;;;13.00;;
40433;SDS011;26146;51.114;5.654;2022-12-07T04:49:19;23.43;;;12.90;;
40433;SDS011;26146;51.114;5.654;2022-12-07T04:53:20;23.90;;;12.83;;
40433;SDS011;26146;51.114;5.654;2022-12-07T04:57:21;21.23;;;12.13;;
40433;SDS011;26146;51.114;5.654;2022-12-07T05:01:23;21.20;;;12.40;;
40433;SDS011;26146;51.114;5.654;2022-12-07T05:05:24;23.23;;;12.47;;
40433;SDS011;26146;51.114;5.654;2022-12-07T05:09:25;22.00;;;12.30;;
40433;SDS011;26146;51.114;5.654;2022-12-07T05:13:28;20.37;;;12.57;;
40433;SDS011;26146;51.114;5.654;2022-12-07T05:17:29;23.50;;;12.63;;
40433;SDS011;26146;51.114;5.654;2022-12-07T05:21:30;21.80;;;12.47;;
40433;SDS011;26146;51.114;5.654;2022-12-07T05:25:31;21.37;;;12.33;;
40433;SDS011;26146;51.114;5.654;2022-12-07T05:29:32;25.57;;;12.20;;
40433;SDS011;26146;51.114;5.654;2022-12-07T05:33:33;24.97;;;13.93;;
40433;SDS011;26146;51.114;5.654;2022-12-07T05:37:37;23.93;;;13.67;;
40433;SDS011;26146;51.114;5.654;2022-12-07T05:41:38;24.10;;;12.10;;
40433;SDS011;26146;51.114;5.654;2022-12-07T05:45:57;26.43;;;12.83;;
40433;SDS011;26146;51.114;5.654;2022-12-07T05:50:02;26.43;;;12.63;;
40433;SDS011;26146;51.114;5.654;2022-12-07T05:54:04;23.37;;;12.67;;
40433;SDS011;26146;51.114;5.654;2022-12-07T05:58:05;27.03;;;13.50;;
40433;SDS011;26146;51.114;5.654;2022-12-07T06:02:25;27.10;;;14.67;;
40433;SDS011;26146;51.114;5.654;2022-12-07T06:06:26;31.33;;;15.50;;
40433;SDS011;26146;51.114;5.654;2022-12-07T06:10:27;32.10;;;15.97;;
40433;SDS011;26146;51.114;5.654;2022-12-07T06:14:27;34.37;;;15.43;;
40433;SDS011;26146;51.114;5.654;2022-12-07T06:18:29;31.17;;;16.67;;
40433;SDS011;26146;51.114;5.654;2022-12-07T06:22:29;32.67;;;16.30;;
40433;SDS011;26146;51.114;5.654;2022-12-07T06:26:30;29.57;;;16.17;;
40433;SDS011;26146;51.114;5.654;2022-12-07T06:30:34;32.17;;;15.97;;
40433;SDS011;26146;51.114;5.654;2022-12-07T06:34:37;32.93;;;17.30;;
40433;SDS011;26146;51.114;5.654;2022-12-07T06:38:39;29.53;;;16.43;;
40433;SDS011;26146;51.114;5.654;2022-12-07T06:42:40;27.87;;;15.40;;
40433;SDS011;26146;51.114;5.654;2022-12-07T06:46:41;32.67;;;16.73;;
40433;SDS011;26146;51.114;5.654;2022-12-07T06:50:44;33.37;;;16.60;;
40433;SDS011;26146;51.114;5.654;2022-12-07T06:54:45;33.73;;;16.80;;
40433;SDS011;26146;51.114;5.654;2022-12-07T06:58:46;32.60;;;16.50;;
40433;SDS011;26146;51.114;5.654;2022-12-07T07:02:48;34.43;;;16.90;;
40433;SDS011;26146;51.114;5.654;2022-12-07T07:06:49;34.53;;;16.80;;
40433;SDS011;26146;51.114;5.654;2022-12-07T07:10:49;33.30;;;16.70;;
40433;SDS011;26146;51.114;5.654;2022-12-07T07:14:51;37.30;;;17.40;;
40433;SDS011;26146;51.114;5.654;2022-12-07T07:18:52;32.30;;;17.13;;
40433;SDS011;26146;51.114;5.654;2022-12-07T07:22:56;37.63;;;18.07;;
40433;SDS011;26146;51.114;5.654;2022-12-07T07:26:57;36.10;;;18.43;;
40433;SDS011;26146;51.114;5.654;2022-12-07T07:31:00;35.27;;;18.40;;
40433;SDS011;26146;51.114;5.654;2022-12-07T07:35:01;37.70;;;19.23;;
40433;SDS011;26146;51.114;5.654;2022-12-07T07:39:03;39.87;;;19.03;;
40433;SDS011;26146;51.114;5.654;2022-12-07T07:43:04;35.80;;;19.53;;
40433;SDS011;26146;51.114;5.654;2022-12-07T07:47:05;36.00;;;18.93;;
40433;SDS011;26146;51.114;5.654;2022-12-07T07:51:06;38.93;;;19.10;;
40433;SDS011;26146;51.114;5.654;2022-12-07T07:55:08;37.47;;;19.10;;
40433;SDS011;26146;51.114;5.654;2022-12-07T07:59:09;37.87;;;19.30;;
40433;SDS011;26146;51.114;5.654;2022-12-07T08:03:10;36.57;;;19.10;;
40433;SDS011;26146;51.114;5.654;2022-12-07T08:07:11;37.70;;;19.10;;
40433;SDS011;26146;51.114;5.654;2022-12-07T08:11:13;44.93;;;20.53;;
40433;SDS011;26146;51.114;5.654;2022-12-07T08:15:14;41.90;;;20.90;;
40433;SDS011;26146;51.114;5.654;2022-12-07T08:19:15;42.23;;;19.53;;
40433;SDS011;26146;51.114;5.654;2022-12-07T08:23:18;40.67;;;19.33;;
40433;SDS011;26146;51.114;5.654;2022-12-07T08:27:19;42.43;;;19.27;;
40433;SDS011;26146;51.114;5.654;2022-12-07T08:31:27;39.23;;;18.40;;
40433;SDS011;26146;51.114;5.654;2022-12-07T08:35:28;36.63;;;17.00;;
40433;SDS011;26146;51.114;5.654;2022-12-07T08:39:29;38.03;;;17.90;;
40433;SDS011;26146;51.114;5.654;2022-12-07T08:43:30;39.40;;;18.73;;
40433;SDS011;26146;51.114;5.654;2022-12-07T08:47:31;38.60;;;17.77;;
40433;SDS011;26146;51.114;5.654;2022-12-07T08:51:33;41.17;;;18.73;;
40433;SDS011;26146;51.114;5.654;2022-12-07T08:55:34;42.27;;;18.80;;
40433;SDS011;26146;51.114;5.654;2022-12-07T08:59:36;41.50;;;18.17;;
40433;SDS011;26146;51.114;5.654;2022-12-07T09:03:40;46.20;;;18.80;;
40433;SDS011;26146;51.114;5.654;2022-12-07T09:07:42;39.00;;;17.80;;
40433;SDS011;26146;51.114;5.654;2022-12-07T09:11:44;38.80;;;17.87;;
40433;SDS011;26146;51.114;5.654;2022-12-07T09:15:45;43.43;;;18.80;;
40433;SDS011;26146;51.114;5.654;2022-12-07T09:19:46;52.40;;;20.40;;
40433;SDS011;26146;51.114;5.654;2022-12-07T09:23:47;43.03;;;20.03;;
40433;SDS011;26146;51.114;5.654;2022-12-07T09:27:48;35.47;;;17.23;;
40433;SDS011;26146;51.114;5.654;2022-12-07T09:31:56;40.43;;;17.93;;
40433;SDS011;26146;51.114;5.654;2022-12-07T09:35:57;32.90;;;16.67;;
40433;SDS011;26146;51.114;5.654;2022-12-07T09:39:57;33.30;;;15.10;;
40433;SDS011;26146;51.114;5.654;2022-12-07T09:44:06;32.53;;;14.67;;
40433;SDS011;26146;51.114;5.654;2022-12-07T09:48:19;27.60;;;13.63;;
40433;SDS011;26146;51.114;5.654;2022-12-07T09:52:26;26.53;;;13.07;;
40433;SDS011;26146;51.114;5.654;2022-12-07T09:56:29;27.77;;;13.37;;
40433;SDS011;26146;51.114;5.654;2022-12-07T10:00:31;26.40;;;12.67;;
40433;SDS011;26146;51.114;5.654;2022-12-07T10:04:32;23.50;;;11.60;;
40433;SDS011;26146;51.114;5.654;2022-12-07T10:08:33;24.23;;;11.73;;
40433;SDS011;26146;51.114;5.654;2022-12-07T10:12:52;23.97;;;10.67;;
40433;SDS011;26146;51.114;5.654;2022-12-07T10:16:57;22.57;;;10.27;;
40433;SDS011;26146;51.114;5.654;2022-12-07T10:21:16;17.43;;;8.90;;
40433;SDS011;26146;51.114;5.654;2022-12-07T10:25:21;23.60;;;9.80;;
40433;SDS011;26146;51.114;5.654;2022-12-07T10:29:30;19.17;;;8.70;;
40433;SDS011;26146;51.114;5.654;2022-12-07T10:33:44;22.63;;;8.35;;
40433;SDS011;26146;51.114;5.654;2022-12-07T10:37:59;18.23;;;7.40;;
40433;SDS011;26146;51.114;5.654;2022-12-07T10:42:01;16.63;;;6.97;;
40433;SDS011;26146;51.114;5.654;2022-12-07T10:58:59;13.40;;;5.70;;
40433;SDS011;26146;51.114;5.654;2022-12-07T11:03:30;13.77;;;5.80;;
40433;SDS011;26146;51.114;5.654;2022-12-07T11:16:50;14.63;;;6.00;;
40433;SDS011;26146;51.114;5.654;2022-12-07T11:33:57;15.47;;;5.80;;
40433;SDS011;26146;51.114;5.654;2022-12-07T11:38:10;15.20;;;5.93;;
40433;SDS011;26146;51.114;5.654;2022-12-07T11:42:19;15.43;;;6.00;;
40433;SDS011;26146;51.114;5.654;2022-12-07T11:54:51;15.83;;;5.40;;
40433;SDS011;26146;51.114;5.654;2022-12-07T11:58:58;13.30;;;4.90;;
40433;SDS011;26146;51.114;5.654;2022-12-07T12:03:11;11.23;;;4.83;;
40433;SDS011;26146;51.114;5.654;2022-12-07T12:07:17;15.00;;;4.87;;
40433;SDS011;26146;51.114;5.654;2022-12-07T12:15:49;12.40;;;4.93;;
40433;SDS011;26146;51.114;5.654;2022-12-07T12:20:24;16.13;;;4.63;;
40433;SDS011;26146;51.114;5.654;2022-12-07T12:24:30;11.77;;;4.87;;
40433;SDS011;26146;51.114;5.654;2022-12-07T12:28:40;11.63;;;5.27;;
40433;SDS011;26146;51.114;5.654;2022-12-07T12:32:51;13.77;;;4.80;;
40433;SDS011;26146;51.114;5.654;2022-12-07T12:36:55;9.90;;;4.60;;
40433;SDS011;26146;51.114;5.654;2022-12-07T12:40:56;11.57;;;5.10;;
40433;SDS011;26146;51.114;5.654;2022-12-07T12:53:26;15.10;;;5.37;;
40433;SDS011;26146;51.114;5.654;2022-12-07T12:57:29;11.60;;;5.20;;
40433;SDS011;26146;51.114;5.654;2022-12-07T13:01:41;12.57;;;5.80;;
40433;SDS011;26146;51.114;5.654;2022-12-07T13:05:43;15.37;;;5.83;;
40433;SDS011;26146;51.114;5.654;2022-12-07T13:09:44;13.27;;;5.03;;
40433;SDS011;26146;51.114;5.654;2022-12-07T13:13:46;13.63;;;5.00;;
40433;SDS011;26146;51.114;5.654;2022-12-07T13:21:54;14.37;;;4.70;;
40433;SDS011;26146;51.114;5.654;2022-12-07T13:26:18;12.50;;;4.20;;
40433;SDS011;26146;51.114;5.654;2022-12-07T13:30:32;12.33;;;3.60;;
40433;SDS011;26146;51.114;5.654;2022-12-07T13:34:47;11.43;;;3.92;;
40433;SDS011;26146;51.114;5.654;2022-12-07T13:38:52;10.87;;;3.70;;
40433;SDS011;26146;51.114;5.654;2022-12-07T13:43:01;12.03;;;3.83;;
40433;SDS011;26146;51.114;5.654;2022-12-07T13:47:15;13.10;;;4.33;;
40433;SDS011;26146;51.114;5.654;2022-12-07T13:51:33;13.60;;;4.43;;
40433;SDS011;26146;51.114;5.654;2022-12-07T13:55:36;12.23;;;4.47;;
40433;SDS011;26146;51.114;5.654;2022-12-07T13:59:49;13.13;;;4.20;;
40433;SDS011;26146;51.114;5.654;2022-12-07T14:03:50;12.87;;;4.43;;
40433;SDS011;26146;51.114;5.654;2022-12-07T14:07:56;13.23;;;4.60;;
40433;SDS011;26146;51.114;5.654;2022-12-07T14:15:58;17.43;;;5.90;;
40433;SDS011;26146;51.114;5.654;2022-12-07T14:20:01;14.23;;;5.27;;
40433;SDS011;26146;51.114;5.654;2022-12-07T14:28:09;14.43;;;5.37;;
40433;SDS011;26146;51.114;5.654;2022-12-07T14:32:29;14.57;;;5.53;;
40433;SDS011;26146;51.114;5.654;2022-12-07T14:36:31;12.10;;;5.30;;
40433;SDS011;26146;51.114;5.654;2022-12-07T14:40:32;13.17;;;4.70;;
40433;SDS011;26146;51.114;5.654;2022-12-07T14:44:33;12.20;;;5.23;;
40433;SDS011;26146;51.114;5.654;2022-12-07T14:48:36;14.40;;;5.30;;
40433;SDS011;26146;51.114;5.654;2022-12-07T14:52:37;11.27;;;5.10;;
40433;SDS011;26146;51.114;5.654;2022-12-07T14:56:39;9.97;;;4.30;;
40433;SDS011;26146;51.114;5.654;2022-12-07T15:00:40;10.13;;;4.50;;
40433;SDS011;26146;51.114;5.654;2022-12-07T15:04:41;9.20;;;3.50;;
40433;SDS011;26146;51.114;5.654;2022-12-07T15:08:43;14.87;;;7.50;;
40433;SDS011;26146;51.114;5.654;2022-12-07T15:12:46;16.47;;;7.60;;
40433;SDS011;26146;51.114;5.654;2022-12-07T15:16:47;17.97;;;5.50;;
40433;SDS011;26146;51.114;5.654;2022-12-07T15:20:49;11.60;;;4.40;;
40433;SDS011;26146;51.114;5.654;2022-12-07T15:24:50;14.07;;;4.80;;
40433;SDS011;26146;51.114;5.654;2022-12-07T15:28:52;13.50;;;5.10;;
40433;SDS011;26146;51.114;5.654;2022-12-07T15:32:54;18.17;;;5.23;;
40433;SDS011;26146;51.114;5.654;2022-12-07T15:36:55;18.47;;;5.53;;
40433;SDS011;26146;51.114;5.654;2022-12-07T15:40:58;16.03;;;5.23;;
40433;SDS011;26146;51.114;5.654;2022-12-07T15:44:59;17.73;;;6.60;;
40433;SDS011;26146;51.114;5.654;2022-12-07T15:49:05;15.87;;;7.03;;
40433;SDS011;26146;51.114;5.654;2022-12-07T15:53:10;14.13;;;6.07;;
40433;SDS011;26146;51.114;5.654;2022-12-07T15:57:10;15.17;;;5.77;;
40433;SDS011;26146;51.114;5.654;2022-12-07T16:01:16;13.10;;;4.80;;
40433;SDS011;26146;51.114;5.654;2022-12-07T16:05:18;15.77;;;5.60;;
40433;SDS011;26146;51.114;5.654;2022-12-07T16:09:20;14.73;;;5.93;;
40433;SDS011;26146;51.114;5.654;2022-12-07T16:13:21;17.97;;;8.60;;
40433;SDS011;26146;51.114;5.654;2022-12-07T16:17:22;14.40;;;6.33;;
40433;SDS011;26146;51.114;5.654;2022-12-07T16:21:23;15.10;;;6.17;;
40433;SDS011;26146;51.114;5.654;2022-12-07T16:25:24;15.13;;;5.80;;
40433;SDS011;26146;51.114;5.654;2022-12-07T16:29:25;14.97;;;5.90;;
40433;SDS011;26146;51.114;5.654;2022-12-07T16:33:26;16.37;;;6.30;;
40433;SDS011;26146;51.114;5.654;2022-12-07T16:37:27;15.13;;;6.10;;
40433;SDS011;26146;51.114;5.654;2022-12-07T16:41:28;15.00;;;6.03;;
40433;SDS011;26146;51.114;5.654;2022-12-07T16:45:30;14.33;;;6.63;;
40433;SDS011;26146;51.114;5.654;2022-12-07T16:49:31;15.87;;;6.60;;
40433;SDS011;26146;51.114;5.654;2022-12-07T16:53:32;16.30;;;6.83;;
40433;SDS011;26146;51.114;5.654;2022-12-07T16:57:35;18.67;;;7.53;;
40433;SDS011;26146;51.114;5.654;2022-12-07T17:01:36;15.30;;;7.20;;
40433;SDS011;26146;51.114;5.654;2022-12-07T17:05:41;15.60;;;7.43;;
40433;SDS011;26146;51.114;5.654;2022-12-07T17:09:43;16.57;;;7.60;;
40433;SDS011;26146;51.114;5.654;2022-12-07T17:13:44;17.43;;;7.93;;
40433;SDS011;26146;51.114;5.654;2022-12-07T17:18:04;19.30;;;8.70;;
40433;SDS011;26146;51.114;5.654;2022-12-07T17:22:05;15.10;;;7.80;;
40433;SDS011;26146;51.114;5.654;2022-12-07T17:26:16;15.70;;;7.53;;
40433;SDS011;26146;51.114;5.654;2022-12-07T17:30:19;16.83;;;7.67;;
40433;SDS011;26146;51.114;5.654;2022-12-07T17:34:20;16.17;;;6.87;;
40433;SDS011;26146;51.114;5.654;2022-12-07T17:38:21;17.17;;;7.70;;
40433;SDS011;26146;51.114;5.654;2022-12-07T17:42:22;17.47;;;7.93;;
40433;SDS011;26146;51.114;5.654;2022-12-07T17:46:48;17.75;;;8.07;;
40433;SDS011;26146;51.114;5.654;2022-12-07T17:50:54;18.43;;;8.60;;
40433;SDS011;26146;51.114;5.654;2022-12-07T17:55:32;17.60;;;8.50;;
40433;SDS011;26146;51.114;5.654;2022-12-07T17:59:44;16.20;;;7.90;;
40433;SDS011;26146;51.114;5.654;2022-12-07T18:03:54;19.97;;;8.40;;
40433;SDS011;26146;51.114;5.654;2022-12-07T18:08:02;18.57;;;9.73;;
40433;SDS011;26146;51.114;5.654;2022-12-07T18:12:11;25.93;;;11.93;;
40433;SDS011;26146;51.114;5.654;2022-12-07T18:16:13;25.70;;;11.30;;
40433;SDS011;26146;51.114;5.654;2022-12-07T18:20:20;22.70;;;11.73;;
40433;SDS011;26146;51.114;5.654;2022-12-07T18:24:21;23.40;;;12.10;;
40433;SDS011;26146;51.114;5.654;2022-12-07T18:28:22;24.20;;;12.47;;
40433;SDS011;26146;51.114;5.654;2022-12-07T18:32:23;28.97;;;12.37;;
40433;SDS011;26146;51.114;5.654;2022-12-07T18:36:24;21.27;;;10.27;;
40433;SDS011;26146;51.114;5.654;2022-12-07T18:40:25;21.00;;;10.27;;
40433;SDS011;26146;51.114;5.654;2022-12-07T18:44:26;24.47;;;10.90;;
40433;SDS011;26146;51.114;5.654;2022-12-07T18:48:29;22.13;;;10.60;;
40433;SDS011;26146;51.114;5.654;2022-12-07T18:52:32;26.37;;;10.60;;
40433;SDS011;26146;51.114;5.654;2022-12-07T18:56:33;22.33;;;9.87;;
40433;SDS011;26146;51.114;5.654;2022-12-07T19:00:34;24.17;;;10.07;;
40433;SDS011;26146;51.114;5.654;2022-12-07T19:04:35;19.47;;;9.10;;
40433;SDS011;26146;51.114;5.654;2022-12-07T19:08:36;26.13;;;10.97;;
40433;SDS011;26146;51.114;5.654;2022-12-07T19:12:38;20.80;;;9.57;;
40433;SDS011;26146;51.114;5.654;2022-12-07T19:16:40;20.33;;;10.33;;
40433;SDS011;26146;51.114;5.654;2022-12-07T19:20:42;18.13;;;9.77;;
40433;SDS011;26146;51.114;5.654;2022-12-07T19:24:43;18.80;;;9.70;;
40433;SDS011;26146;51.114;5.654;2022-12-07T19:28:48;21.52;;;11.20;;
40433;SDS011;26146;51.114;5.654;2022-12-07T19:32:50;18.63;;;9.40;;
40433;SDS011;26146;51.114;5.654;2022-12-07T19:36:50;21.27;;;10.03;;
40433;SDS011;26146;51.114;5.654;2022-12-07T19:40:52;19.77;;;10.30;;
40433;SDS011;26146;51.114;5.654;2022-12-07T19:44:55;23.57;;;10.33;;
40433;SDS011;26146;51.114;5.654;2022-12-07T19:48:56;22.50;;;10.27;;
40433;SDS011;26146;51.114;5.654;2022-12-07T19:52:57;22.07;;;9.63;;
40433;SDS011;26146;51.114;5.654;2022-12-07T19:56:58;20.17;;;9.47;;
40433;SDS011;26146;51.114;5.654;2022-12-07T20:01:02;23.03;;;9.80;;
40433;SDS011;26146;51.114;5.654;2022-12-07T20:05:04;23.42;;;9.90;;
40433;SDS011;26146;51.114;5.654;2022-12-07T20:09:05;22.10;;;11.10;;
40433;SDS011;26146;51.114;5.654;2022-12-07T20:13:07;22.87;;;11.23;;
40433;SDS011;26146;51.114;5.654;2022-12-07T20:17:27;19.17;;;9.07;;
40433;SDS011;26146;51.114;5.654;2022-12-07T20:21:28;20.13;;;10.17;;
40433;SDS011;26146;51.114;5.654;2022-12-07T20:25:29;18.87;;;9.90;;
40433;SDS011;26146;51.114;5.654;2022-12-07T20:29:30;18.43;;;9.37;;
40433;SDS011;26146;51.114;5.654;2022-12-07T20:33:32;19.40;;;9.93;;
40433;SDS011;26146;51.114;5.654;2022-12-07T20:37:33;17.87;;;8.67;;
40433;SDS011;26146;51.114;5.654;2022-12-07T20:41:34;17.27;;;8.80;;
40433;SDS011;26146;51.114;5.654;2022-12-07T20:45:53;18.40;;;9.07;;
40433;SDS011;26146;51.114;5.654;2022-12-07T20:49:55;19.20;;;8.73;;
40433;SDS011;26146;51.114;5.654;2022-12-07T20:53:56;18.53;;;9.53;;
40433;SDS011;26146;51.114;5.654;2022-12-07T20:57:57;17.57;;;8.93;;
40433;SDS011;26146;51.114;5.654;2022-12-07T21:01:58;19.77;;;8.43;;
40433;SDS011;26146;51.114;5.654;2022-12-07T21:06:02;15.93;;;7.97;;
40433;SDS011;26146;51.114;5.654;2022-12-07T21:10:03;20.30;;;9.50;;
40433;SDS011;26146;51.114;5.654;2022-12-07T21:14:05;15.73;;;8.00;;
40433;SDS011;26146;51.114;5.654;2022-12-07T21:18:06;14.80;;;7.87;;
40433;SDS011;26146;51.114;5.654;2022-12-07T21:22:07;17.53;;;8.07;;
40433;SDS011;26146;51.114;5.654;2022-12-07T21:26:09;17.80;;;8.10;;
40433;SDS011;26146;51.114;5.654;2022-12-07T21:30:11;19.43;;;8.63;;
40433;SDS011;26146;51.114;5.654;2022-12-07T21:34:12;17.43;;;8.23;;
40433;SDS011;26146;51.114;5.654;2022-12-07T21:38:13;16.23;;;7.67;;
40433;SDS011;26146;51.114;5.654;2022-12-07T21:42:14;14.50;;;7.27;;
40433;SDS011;26146;51.114;5.654;2022-12-07T21:46:16;14.77;;;7.23;;
40433;SDS011;26146;51.114;5.654;2022-12-07T21:50:18;15.77;;;7.03;;
40433;SDS011;26146;51.114;5.654;2022-12-07T21:54:19;16.77;;;7.00;;
40433;SDS011;26146;51.114;5.654;2022-12-07T21:58:20;16.43;;;7.13;;
40433;SDS011;26146;51.114;5.654;2022-12-07T22:02:21;16.80;;;7.23;;
40433;SDS011;26146;51.114;5.654;2022-12-07T22:06:24;16.87;;;7.47;;
40433;SDS011;26146;51.114;5.654;2022-12-07T22:10:26;14.97;;;7.87;;
40433;SDS011;26146;51.114;5.654;2022-12-07T22:14:30;19.53;;;10.07;;
40433;SDS011;26146;51.114;5.654;2022-12-07T22:18:49;17.93;;;8.93;;
40433;SDS011;26146;51.114;5.654;2022-12-07T22:22:50;18.67;;;8.73;;
40433;SDS011;26146;51.114;5.654;2022-12-07T22:26:51;20.23;;;8.57;;
40433;SDS011;26146;51.114;5.654;2022-12-07T22:30:52;17.60;;;8.30;;
40433;SDS011;26146;51.114;5.654;2022-12-07T22:34:53;18.00;;;9.03;;
40433;SDS011;26146;51.114;5.654;2022-12-07T22:38:55;20.53;;;9.70;;
40433;SDS011;26146;51.114;5.654;2022-12-07T22:42:57;19.63;;;10.07;;
40433;SDS011;26146;51.114;5.654;2022-12-07T22:46:58;20.53;;;10.73;;
40433;SDS011;26146;51.114;5.654;2022-12-07T22:50:59;22.60;;;10.90;;
40433;SDS011;26146;51.114;5.654;2022-12-07T22:55:00;23.27;;;11.80;;
40433;SDS011;26146;51.114;5.654;2022-12-07T22:59:05;23.80;;;12.70;;
40433;SDS011;26146;51.114;5.654;2022-12-07T23:03:06;23.55;;;11.75;;
40433;SDS011;26146;51.114;5.654;2022-12-07T23:07:07;23.93;;;12.10;;
40433;SDS011;26146;51.114;5.654;2022-12-07T23:11:10;26.37;;;13.87;;
40433;SDS011;26146;51.114;5.654;2022-12-07T23:15:36;27.80;;;14.60;;
40433;SDS011;26146;51.114;5.654;2022-12-07T23:19:37;32.17;;;15.57;;
40433;SDS011;26146;51.114;5.654;2022-12-07T23:23:40;29.33;;;15.07;;
40433;SDS011;26146;51.114;5.654;2022-12-07T23:27:41;29.73;;;15.43;;
40433;SDS011;26146;51.114;5.654;2022-12-07T23:31:42;27.90;;;14.90;;
40433;SDS011;26146;51.114;5.654;2022-12-07T23:35:43;29.73;;;15.47;;
40433;SDS011;26146;51.114;5.654;2022-12-07T23:39:44;29.03;;;15.03;;
40433;SDS011;26146;51.114;5.654;2022-12-07T23:43:45;31.43;;;15.60;;
40433;SDS011;26146;51.114;5.654;2022-12-07T23:47:49;29.10;;;14.57;;
40433;SDS011;26146;51.114;5.654;2022-12-07T23:51:50;31.03;;;15.40;;
40433;SDS011;26146;51.114;5.654;2022-12-07T23:55:51;26.83;;;14.80;;
40433;SDS011;26146;51.114;5.654;2022-12-07T23:59:52;28.97;;;15.17;;
